Terminal Aerodrome Forecast
Issued by NWS

Current Version | Previous Version | Text Only | Print | Product List | Glossary On
Versions: 1 2 3 4 5 6 7 8 9 10 11 12 13
574
FTUS44 KEPZ 290520
TAFLRU
TAF
KLRU 290520Z 2906/3006 09007KT P6SM FEW050 SCT100 SCT250
     FM291800 12009KT P6SM SCT070 SCT250=

USA.gov is the U.S. government's official web portal to all federal, state and local government web resources and services.